Time;durP1;ratioP1;P1;durP2;ratioP2;P2;SDS_P1;SDS_P2;PMS_P1;PMS_P2;Temp;Humidity;BMP_temperature;BMP_pressure;BME280_temperature;BME280_humidity;BME280_pressure;Samples;Min_cycle;Max_cycle;Signal;HPM_P1;HPM_P2
2022/06/28 00:02:53;;;;;;;5.60;5.10;;;;;;;23.15;50.28;98619.54;432919;1270;99295;-44
2022/06/28 00:13:00;;;;;;;8.20;5.80;;;;;;;23.10;50.58;98618.56;433140;1270;112426;-46
2022/06/28 00:23:04;;;;;;;6.40;5.80;;;;;;;23.09;50.96;98626.77;433070;1270;109042;-45
2022/06/28 00:33:08;;;;;;;10.50;5.50;;;;;;;22.94;51.01;98629.89;433217;1269;98860;-45
2022/06/28 00:43:13;;;;;;;8.90;5.70;;;;;;;22.81;51.60;98625.02;433027;1270;108870;-44
2022/06/28 00:53:18;;;;;;;6.80;5.90;;;;;;;22.78;51.93;98612.55;432970;1270;99666;-42
2022/06/28 01:03:23;;;;;;;6.60;6.00;;;;;;;22.79;52.12;98611.56;432977;1270;111220;-43
2022/06/28 01:13:27;;;;;;;8.10;6.20;;;;;;;22.61;52.47;98614.54;433874;1258;108633;-43
2022/06/28 01:23:32;;;;;;;7.70;6.90;;;;;;;22.35;52.96;98619.17;432706;1270;99257;-43
2022/06/28 01:33:37;;;;;;;7.40;6.40;;;;;;;22.22;53.45;98631.40;432575;1269;108762;-46
2022/06/28 01:43:41;;;;;;;7.80;6.10;;;;;;;22.01;53.89;98634.06;432594;1270;99353;-43
2022/06/28 01:53:44;;;;;;;11.70;7.20;;;;;;;21.87;54.50;98634.75;432965;1270;392868;-41
2022/06/28 02:13:53;;;;;;;9.50;8.40;;;;;;;21.72;55.37;98642.77;433318;1270;99314;-43
2022/06/28 02:23:57;;;;;;;12.10;8.70;;;;;;;21.54;55.82;98651.61;432480;1270;108418;-44
2022/06/28 02:34:01;;;;;;;9.60;8.70;;;;;;;21.36;56.34;98658.33;432577;1270;99366;-43
2022/06/28 02:44:03;;;;;;;10.50;8.50;;;;;;;21.28;56.65;98656.05;432428;1270;112508;-43
2022/06/28 02:54:07;;;;;;;12.20;8.10;;;;;;;21.20;57.28;98656.61;432643;1270;108915;-42
2022/06/28 03:04:11;;;;;;;9.90;8.60;;;;;;;21.22;57.62;98661.63;432398;1270;99290;-42
2022/06/28 03:14:15;;;;;;;10.30;8.70;;;;;;;21.19;57.98;98658.09;432302;1270;108696;-45
2022/06/28 03:24:19;;;;;;;12.70;8.50;;;;;;;21.24;58.25;98662.46;432930;1270;99143;-45
2022/06/28 03:34:23;;;;;;;16.30;9.60;;;;;;;21.46;58.29;98664.36;432695;1270;112478;-47
2022/06/28 03:44:26;;;;;;;13.20;9.30;;;;;;;22.42;58.04;98653.05;432521;1270;108620;-43
2022/06/28 03:54:30;;;;;;;11.20;8.40;;;;;;;24.36;56.57;98651.66;432571;1268;99283;-42
2022/06/28 04:04:34;;;;;;;11.10;9.10;;;;;;;25.84;54.46;98642.54;432432;1269;108955;-44
2022/06/28 04:14:38;;;;;;;9.50;8.30;;;;;;;26.58;52.87;98635.02;432920;1269;99254;-42
2022/06/28 04:24:40;;;;;;;14.20;9.00;;;;;;;27.36;51.70;98630.57;432933;1270;112499;-42
2022/06/28 04:34:45;;;;;;;14.80;9.90;;;;;;;27.26;50.60;98633.73;432663;1269;108745;-42
2022/06/28 04:44:48;;;;;;;11.60;9.70;;;;;;;26.70;50.81;98634.42;433017;1270;98833;-43
2022/06/28 04:54:52;;;;;;;12.20;10.50;;;;;;;26.64;50.64;98638.50;432586;1270;108949;-42
2022/06/28 05:04:55;;;;;;;17.20;10.10;;;;;;;27.16;50.59;98655.67;433107;1270;99280;-45
2022/06/28 05:14:59;;;;;;;22.50;11.30;;;;;;;27.34;50.51;98659.98;433180;1270;112557;-44
2022/06/28 05:35:09;;;;;;;31.50;11.60;;;;;;;28.48;50.09;98669.77;433022;1270;99284;-43
2022/06/28 05:45:13;;;;;;;10.50;8.90;;;;;;;29.49;49.25;98671.33;433071;1270;108796;-45
2022/06/28 05:55:16;;;;;;;13.30;10.10;;;;;;;29.64;48.32;98678.06;432647;1270;99283;-43
2022/06/28 06:05:20;;;;;;;11.80;10.60;;;;;;;29.48;48.08;98687.10;433046;1270;112230;-45
2022/06/28 06:15:23;;;;;;;14.40;11.00;;;;;;;29.03;47.51;98683.47;432482;1270;109914;-43
2022/06/28 06:25:27;;;;;;;16.80;11.10;;;;;;;28.52;48.00;98695.45;432775;1270;99264;-44
2022/06/28 06:35:31;;;;;;;16.70;11.80;;;;;;;28.12;48.64;98706.88;433148;1270;109155;-42
2022/06/28 06:45:34;;;;;;;14.00;12.50;;;;;;;28.03;49.22;98708.09;433077;1270;98848;-43
2022/06/28 06:55:38;;;;;;;14.90;11.70;;;;;;;28.17;49.60;98702.98;432589;1270;113236;-42
2022/06/28 07:05:42;;;;;;;15.60;11.00;;;;;;;28.18;49.84;98717.78;433043;1269;108796;-42
2022/06/28 07:15:46;;;;;;;12.20;11.00;;;;;;;28.25;50.11;98726.31;432789;1270;99263;-43
2022/06/28 07:25:50;;;;;;;12.50;11.30;;;;;;;28.85;50.05;98738.89;432884;1270;108480;-47
2022/06/28 07:35:54;;;;;;;13.40;10.90;;;;;;;29.68;49.33;98747.73;432578;1269;98047;-47
2022/06/28 07:56:03;;;;;;;18.20;11.40;;;;;;;30.57;47.89;98740.55;432774;1270;107803;-43
2022/06/28 08:06:06;;;;;;;11.40;10.20;;;;;;;30.73;47.36;98732.46;433118;1270;98829;-46
2022/06/28 08:16:11;;;;;;;12.20;11.00;;;;;;;30.51;46.96;98728.96;433236;1270;108890;-44
2022/06/28 08:26:15;;;;;;;11.90;10.90;;;;;;;30.43;47.18;98735.56;432730;1270;99286;-45
2022/06/28 08:36:18;;;;;;;12.50;10.30;;;;;;;30.86;47.45;98748.13;432635;1270;112489;-45
2022/06/28 08:56:26;;;;;;;12.10;10.60;;;;;;;31.29;46.49;98752.55;432795;1270;99394;-43
2022/06/28 09:06:30;;;;;;;11.80;9.90;;;;;;;30.98;46.69;98788.55;432654;1270;99291;-42
2022/06/28 09:16:34;;;;;;;14.50;10.70;;;;;;;30.23;47.41;98812.58;432481;1270;108897;-41
2022/06/28 09:26:38;;;;;;;12.80;11.20;;;;;;;29.48;48.52;98821.13;432551;1270;99378;-44
2022/06/28 09:46:57;;;;;;;12.60;11.40;;;;;;;29.78;49.85;98817.77;432727;1270;98857;-44
2022/06/28 09:57:01;;;;;;;14.70;12.40;;;;;;;30.22;49.77;98822.63;433091;1271;112354;-44
2022/06/28 10:07:04;;;;;;;16.20;11.50;;;;;;;30.27;49.38;98843.09;432577;1268;99292;-43
2022/06/28 10:17:10;;;;;;;13.60;11.00;;;;;;;29.62;49.63;98859.80;432679;1270;99305;-42
2022/06/28 10:27:15;;;;;;;12.60;11.30;;;;;;;29.31;50.03;98873.83;432542;1270;112708;-43
2022/06/28 10:37:21;;;;;;;13.20;11.80;;;;;;;29.83;50.22;98865.54;432691;1270;109135;-43
2022/06/28 10:47:25;;;;;;;13.70;12.40;;;;;;;30.13;49.45;98862.11;432540;1270;99443;-44
2022/06/28 10:57:36;;;;;;;31.30;12.30;;;;;;;29.60;49.17;98867.76;433206;1270;107808;-43
2022/06/28 11:07:44;;;;;;;12.10;10.90;;;;;;;29.33;49.81;98867.95;432409;1270;99279;-45
2022/06/28 11:17:47;;;;;;;12.10;8.80;;;;;;;29.47;49.64;98889.91;432755;1270;112506;-42
2022/06/28 11:27:53;;;;;;;12.00;7.50;;;;;;;28.59;49.75;98914.60;432420;1270;108839;-42
2022/06/28 11:37:59;;;;;;;9.20;7.10;;;;;;;27.90;50.44;98920.48;432699;1270;99260;-42
2022/06/28 11:48:02;;;;;;;7.00;6.10;;;;;;;27.49;50.94;98927.46;432460;1271;108789;-43
2022/06/28 11:58:23;;;;;;;12.40;6.60;;;;;;;27.04;51.27;98945.59;432564;1270;99250;-46
2022/06/28 12:08:41;;;;;;;20.10;7.70;;;;;;;26.79;52.33;98942.60;432487;1271;112618;-42
2022/06/28 12:18:53;;;;;;;8.50;7.50;;;;;;;26.51;53.57;98959.70;432413;1270;108873;-45
2022/06/28 12:28:57;;;;;;;9.10;8.20;;;;;;;26.10;54.54;98974.33;432595;1271;99398;-42
2022/06/28 12:39:01;;;;;;;10.40;7.10;;;;;;;25.65;55.56;98973.80;432463;1270;107621;-44
2022/06/28 12:49:04;;;;;;;5.80;4.90;;;;;;;25.23;56.93;98975.77;432486;1271;98857;-45
2022/06/28 12:59:09;;;;;;;8.00;5.40;;;;;;;24.82;57.52;98965.06;432567;1270;112374;-44
2022/06/28 13:09:13;;;;;;;6.80;5.30;;;;;;;24.47;58.28;98929.41;432552;1270;108659;-41
2022/06/28 13:19:17;;;;;;;5.60;4.50;;;;;;;24.61;58.21;98932.37;432269;1270;98870;-41
2022/06/28 13:29:21;;;;;;;10.30;4.00;;;;;;;24.69;58.56;98909.84;432539;1270;108853;-43
2022/06/28 13:39:25;;;;;;;10.70;3.80;;;;;;;24.79;57.73;98895.67;432403;1270;99271;-42
2022/06/28 13:49:29;;;;;;;3.90;3.00;;;;;;;24.63;57.61;98893.24;432685;1270;112690;-44
2022/06/28 13:59:32;;;;;;;3.80;3.20;;;;;;;24.40;57.66;98919.75;432159;1270;491241;-43
2022/06/28 14:09:36;;;;;;;4.90;3.80;;;;;;;24.40;57.49;98931.81;432675;1270;99259;-43
2022/06/28 14:29:44;;;;;;;7.90;4.30;;;;;;;24.47;58.11;98929.19;432689;1270;99296;-44
2022/06/28 14:39:47;;;;;;;5.00;4.50;;;;;;;24.58;58.48;98923.36;432317;1270;112571;-40
2022/06/28 14:49:51;;;;;;;4.20;3.90;;;;;;;24.76;58.63;98917.91;432388;1270;108066;-45
2022/06/28 14:59:56;;;;;;;11.00;5.10;;;;;;;24.66;58.85;98914.04;432544;1270;98861;-45
2022/06/28 15:09:59;;;;;;;6.00;4.60;;;;;;;25.14;58.93;98901.77;432620;1270;108828;-42
2022/06/28 15:20:04;;;;;;;6.10;5.50;;;;;;;25.54;58.27;98898.33;432584;1270;99437;-42
2022/06/28 15:40:33;;;;;;;6.40;5.20;;;;;;;25.59;57.53;98902.67;432622;1270;108825;-41
2022/06/28 15:50:37;;;;;;;6.30;5.00;;;;;;;25.90;57.80;98905.69;432605;1270;99254;-41
2022/06/28 16:00:41;;;;;;;8.10;5.40;;;;;;;26.09;57.00;98921.64;432647;1270;109111;-44
2022/06/28 16:10:45;;;;;;;6.90;5.70;;;;;;;25.98;56.51;98917.34;432622;1270;99259;-43
2022/06/28 16:20:49;;;;;;;5.90;5.10;;;;;;;25.75;56.59;98915.14;432556;1270;112454;-41
2022/06/28 16:30:53;;;;;;;6.00;4.80;;;;;;;25.43;56.68;98905.23;432570;1270;107712;-46
2022/06/28 16:40:58;;;;;;;5.30;4.70;;;;;;;25.29;56.71;98911.20;432414;1270;99289;-41
2022/06/28 16:51:01;;;;;;;8.60;4.70;;;;;;;25.22;56.48;98909.70;432599;1270;108932;-47
2022/06/28 17:01:06;;;;;;;4.10;3.70;;;;;;;25.15;56.55;98906.30;432996;1270;99352;-42
2022/06/28 17:11:10;;;;;;;5.40;4.80;;;;;;;25.00;56.61;98893.09;432472;1270;112500;-43
2022/06/28 17:21:13;;;;;;;6.80;2.90;;;;;;;24.98;56.56;98890.23;433016;1270;109207;-44
2022/06/28 17:31:18;;;;;;;4.40;3.40;;;;;;;24.94;56.63;98895.14;433186;1270;99263;-42
2022/06/28 17:41:22;;;;;;;5.20;3.60;;;;;;;24.73;56.80;98888.46;432596;1270;109131;-45
2022/06/28 17:51:26;;;;;;;6.20;3.70;;;;;;;24.51;56.98;98877.22;433101;1270;99936;-43
2022/06/28 18:01:44;;;;;;;6.50;3.70;;;;;;;24.37;57.21;98873.95;433095;1270;112679;-42
2022/06/28 18:11:48;;;;;;;7.10;3.50;;;;;;;24.18;57.41;98878.26;432309;1270;109018;-42
2022/06/28 18:21:52;;;;;;;4.30;3.90;;;;;;;23.96;57.66;98871.55;432388;1270;99237;-45
2022/06/28 18:31:55;;;;;;;10.00;5.00;;;;;;;23.76;58.20;98866.85;433158;1270;108833;-46
2022/06/28 18:42:00;;;;;;;6.70;5.30;;;;;;;23.47;58.63;98884.45;432547;1267;99277;-41
2022/06/28 18:52:05;;;;;;;9.80;5.40;;;;;;;23.28;59.26;98887.47;432325;1270;112348;-43
2022/06/28 19:02:08;;;;;;;9.90;5.40;;;;;;;23.07;59.83;98892.15;432604;1269;107687;-40
2022/06/28 19:12:12;;;;;;;12.00;6.90;;;;;;;22.76;60.07;98906.86;432542;1270;99255;-42
2022/06/28 19:22:15;;;;;;;9.40;6.80;;;;;;;22.47;60.71;98921.05;433059;1270;108930;-42
2022/06/28 19:32:19;;;;;;;11.80;8.50;;;;;;;22.34;61.46;98940.65;433250;1270;99265;-42
2022/06/28 19:42:24;;;;;;;22.90;12.10;;;;;;;22.10;61.73;98958.21;433209;1270;112980;-44
2022/06/28 19:52:28;;;;;;;17.00;10.70;;;;;;;21.79;62.28;98957.01;432471;1270;108867;-41
2022/06/28 20:02:32;;;;;;;28.70;11.40;;;;;;;21.72;62.99;98969.02;433322;1270;99407;-43
2022/06/28 20:12:36;;;;;;;19.50;12.20;;;;;;;21.63;63.49;98963.46;432319;1270;109033;-44
2022/06/28 20:22:40;;;;;;;20.00;12.30;;;;;;;21.33;63.72;98964.06;432654;1270;99392;-41
2022/06/28 20:32:44;;;;;;;14.00;12.30;;;;;;;20.98;64.38;98950.24;432627;1269;112482;-41
2022/06/28 20:42:48;;;;;;;14.80;11.40;;;;;;;20.85;65.17;98948.01;432978;1270;108856;-41
2022/06/28 20:52:52;;;;;;;14.20;11.70;;;;;;;20.75;65.48;98936.67;432539;1270;99295;-43
2022/06/28 21:02:56;;;;;;;16.20;13.20;;;;;;;20.63;66.12;98929.59;432254;1270;108891;-44
2022/06/28 21:13:00;;;;;;;16.70;13.70;;;;;;;20.51;66.32;98940.77;433103;1269;98867;-42
2022/06/28 21:23:04;;;;;;;17.60;14.00;;;;;;;20.34;66.78;98957.23;432589;1270;112772;-43
2022/06/28 21:33:07;;;;;;;17.90;14.90;;;;;;;20.25;67.19;98960.98;432692;1270;108894;-42
2022/06/28 21:43:12;;;;;;;17.40;14.90;;;;;;;20.14;67.53;98960.39;432573;1270;99353;-44
2022/06/28 21:53:16;;;;;;;18.60;14.40;;;;;;;19.93;67.74;98971.82;433321;1270;108844;-43
2022/06/28 22:03:19;;;;;;;26.00;17.20;;;;;;;19.95;68.22;98979.74;432677;1270;99308;-43
2022/06/28 22:13:23;;;;;;;20.10;16.40;;;;;;;19.83;68.19;98999.53;433279;1270;112379;-43
2022/06/28 22:33:30;;;;;;;28.40;17.90;;;;;;;19.51;69.11;98980.88;432501;1270;99324;-45
2022/06/28 22:43:34;;;;;;;21.90;18.70;;;;;;;19.27;69.53;98955.29;432476;1270;108908;-42
2022/06/28 22:53:37;;;;;;;22.70;18.40;;;;;;;19.07;70.33;98950.73;433034;1270;99355;-44
2022/06/28 23:03:41;;;;;;;21.40;19.20;;;;;;;18.98;71.00;98948.29;432499;1270;112449;-43
2022/06/28 23:13:45;;;;;;;18.50;16.70;;;;;;;19.06;71.61;98945.98;432564;1270;108789;-42
2022/06/28 23:23:49;;;;;;;20.10;17.10;;;;;;;19.13;71.79;98944.91;432586;1270;99420;-42
2022/06/28 23:33:52;;;;;;;24.60;17.70;;;;;;;19.00;71.90;98934.27;432392;1270;108992;-42
2022/06/28 23:43:56;;;;;;;20.00;18.00;;;;;;;18.96;72.22;98939.89;432423;1270;99270;-42
